Latest Weather Observations for Cocos Island

IDW60801

Issued at 8:05 am WST Thursday 2 October 2014 (issued every 30 minutes, with the page automatically refreshed every 10 minutes)

About weather observations | Map of weather stations | Latest weather observations for WA | Other Formats
Station Details ID: 200284 Name: COCOS ISLAND AIRPORT Lat: -12.19 Lon: 96.83 Height: 3.0 m
Data from the previous 72 hours. | See also: Recent months at Cocos Island
Date/Time
WST
Temp
°C
App
Temp
°C
Dew
Point
Rel
Hum
%
Delta-T
°C
Wind Press
QNH
hPa
Press
MSL
hPa
Rain
since 9 am
mm
Dir
 
Spd
km/h
Gust
km/h
Spd
kts
Gust
kts
02/08:00am 26.2 25.4 20.9 72 3.5 ESE 26 32 14 17 1013.2 1013.2 0.8
02/07:30am 26.0 25.8 21.3 75 3.1 ESE 24 32 13 17 1013.1 - 0.8
02/07:00am 26.0 26.3 21.6 76 2.9 ESE 22 30 12 16 1012.8 - 0.8
02/06:30am 25.9 25.8 21.4 76 3.0 ESE 24 32 13 17 1012.4 - 0.8
02/06:00am 26.1 26.3 22.1 78 2.7 ESE 24 35 13 19 1012.3 - 0.8
02/05:30am 26.1 26.7 22.1 78 2.7 ESE 22 32 12 17 1012.1 - 0.8
02/05:00am 26.0 26.8 21.8 77 2.8 ESE 20 30 11 16 1012.0 1012.0 0.8
02/04:30am 26.2 27.3 21.9 77 2.9 ESE 19 26 10 14 1012.0 - 0.8
02/04:00am 26.2 26.4 22.0 77 2.8 ESE 24 32 13 17 1012.1 - 0.8
02/03:30am 26.3 27.3 22.1 77 2.8 E 20 28 11 15 1012.2 - 0.8
02/03:00am 26.2 27.3 22.3 79 2.6 ESE 20 28 11 15 1012.4 - 0.8
02/02:30am 26.5 27.5 22.2 77 2.9 ESE 20 30 11 16 1012.5 - 0.8
02/02:00am 26.6 27.9 22.6 78 2.7 ESE 20 30 11 16 1012.8 1012.8 0.8
02/01:30am 26.7 26.5 22.1 76 3.1 E 26 35 14 19 1013.2 - 0.8
02/01:00am 26.6 27.1 22.6 78 2.7 E 24 32 13 17 1013.6 - 0.8
02/12:30am 26.8 27.5 23.0 79 2.6 ESE 24 33 13 18 1013.9 - 0.8
02/12:00am 26.6 28.4 23.2 81 2.3 ESE 19 24 10 13 1014.2 - 0.8
 
Date/Time
WST
Temp
°C
App
Temp
°C
Dew
Point
Rel
Hum
%
Delta-T
°C
Wind Press
QNH
hPa
Press
MSL
hPa
Rain
since 9 am
mm
Dir
 
Spd
km/h
Gust
km/h
Spd
kts
Gust
kts
01/11:30pm 26.5 26.6 21.9 76 3.1 ESE 24 33 13 18 1014.4 - 0.8
01/11:00pm 27.0 27.9 21.6 72 3.6 E 19 28 10 15 1014.5 1014.5 0.8
01/10:30pm 27.0 28.4 22.6 77 3.0 E 19 26 10 14 1014.4 - 0.8
01/10:00pm 27.1 27.8 22.2 74 3.3 E 22 30 12 16 1014.3 - 0.8
01/09:30pm 27.0 28.3 22.4 76 3.1 E 19 24 10 13 1014.1 - 0.8
01/09:00pm 27.1 28.5 22.5 76 3.1 E 19 24 10 13 1014.0 - 0.8
01/08:30pm 27.1 28.5 22.5 76 3.1 E 19 24 10 13 1013.7 - 0.8
01/08:00pm 27.1 28.7 22.2 74 3.3 ESE 17 24 9 13 1013.3 1013.3 0.8
01/07:30pm 27.1 28.5 22.5 76 3.1 E 19 24 10 13 1012.9 - 0.8
01/07:00pm 27.4 28.5 22.0 72 3.6 ESE 19 22 10 12 1012.4 - 0.8
01/06:30pm 27.8 28.6 21.7 69 4.1 E 20 28 11 15 1012.1 - 0.8
01/06:00pm 27.9 29.2 22.6 73 3.6 E 20 28 11 15 1011.8 - 0.0
01/05:30pm 28.2 29.1 22.6 71 3.8 E 22 32 12 17 1011.6 - 0.0
01/05:00pm 28.1 28.9 22.5 71 3.8 E 22 30 12 16 1011.4 1011.4 0.0
01/04:30pm 28.5 29.6 23.1 72 3.7 E 22 30 12 16 1011.3 - 0.0
01/04:00pm 28.2 28.8 22.8 72 3.7 E 24 30 13 16 1011.6 - 0.0
01/03:30pm 28.4 28.3 22.3 69 4.1 E 26 33 14 18 1011.8 - 0.0
01/03:00pm 28.2 27.8 22.3 70 4.0 E 28 33 15 18 1011.9 - 0.0
01/02:30pm 28.3 27.8 22.2 69 4.1 E 28 35 15 19 1012.2 - 0.0
01/02:00pm 28.1 27.7 21.7 68 4.3 E 26 33 14 18 1012.7 1012.7 0.0
01/01:30pm 28.1 27.4 21.8 68 4.2 E 28 32 15 17 1013.0 - 0.0
01/01:00pm 28.1 27.9 22.0 69 4.1 E 26 30 14 16 1013.4 - 0.0
01/12:30pm 28.1 27.8 22.6 72 3.7 E 28 32 15 17 1013.8 - 0.0
01/12:00pm 27.8 27.1 21.8 70 4.0 E 28 33 15 18 1014.0 - 0.0
01/11:30am 27.8 28.2 23.1 75 3.2 E 26 32 14 17 1014.3 - 0.0
01/11:00am 27.4 27.9 22.7 75 3.2 E 24 30 13 16 1014.3 1014.3 3.6
01/10:30am 27.3 27.8 22.6 75 3.2 E 24 30 13 16 1014.4 - 3.6
01/10:00am 27.5 27.8 22.3 73 3.5 E 24 30 13 16 1014.4 - 3.6
01/09:30am 27.1 27.4 22.2 74 3.3 E 24 30 13 16 1014.1 - 3.6
01/09:00am 26.7 27.0 22.2 76 3.0 E 24 30 13 16 1013.9 - 3.6
01/08:30am 26.8 27.1 22.2 76 3.1 E 24 28 13 15 1013.6 - 3.6
01/08:00am 26.6 26.8 22.0 76 3.1 E 24 28 13 15 1013.1 1013.1 3.6
01/07:30am 26.2 26.2 21.7 76 3.0 E 24 28 13 15 1012.9 - 3.6
01/07:00am 26.2 26.1 21.5 75 3.1 E 24 30 13 16 1012.7 - 3.6
01/06:30am 26.2 25.7 21.4 75 3.2 E 26 32 14 17 1012.4 - 3.6
01/06:00am 26.1 25.8 21.9 77 2.8 E 26 28 14 15 1012.1 - 3.6
01/05:30am 26.1 26.2 21.9 77 2.8 ENE 24 28 13 15 1012.0 - 3.6
01/05:00am 26.0 26.1 21.8 77 2.8 ENE 24 28 13 15 1011.8 1011.8 3.6
01/04:30am 26.0 26.1 21.8 77 2.8 ENE 24 28 13 15 1011.7 - 3.4
01/04:00am 26.2 26.1 21.5 75 3.1 E 24 26 13 14 1011.7 - 3.4
01/03:30am 26.3 26.0 21.8 76 3.0 ENE 26 32 14 17 1011.6 - 3.4
01/03:00am 26.3 26.4 22.6 80 2.5 ENE 26 32 14 17 1011.9 - 3.4
01/02:30am 26.3 26.1 22.1 77 2.8 ENE 26 30 14 16 1012.1 - 3.4
01/02:00am 26.3 26.6 22.3 78 2.7 ENE 24 28 13 15 1012.4 1012.4 3.4
01/01:30am 25.1 26.4 21.6 81 2.3 E 17 28 9 15 1012.8 - 3.4
01/01:05am 25.2 25.8 22.8 86 1.6 E 24 39 13 21 1013.0 - 1.4
01/01:00am 26.5 28.0 23.0 81 2.4 E 20 26 11 14 1013.0 - 0.0
01/12:30am 26.6 27.7 22.4 78 2.8 ENE 20 26 11 14 1013.0 - 0.0
01/12:00am 26.7 27.8 22.4 77 2.9 ENE 20 24 11 13 1013.3 - 0.0
 
Date/Time
WST
Temp
°C
App
Temp
°C
Dew
Point
Rel
Hum
%
Delta-T
°C
Wind Press
QNH
hPa
Press
MSL
hPa
Rain
since 9 am
mm
Dir
 
Spd
km/h
Gust
km/h
Spd
kts
Gust
kts
30/11:30pm 26.7 26.8 21.9 75 3.2 ENE 24 28 13 15 1013.4 - 0.0
30/11:00pm 26.9 26.5 21.7 73 3.5 E 26 30 14 16 1013.4 1013.4 0.0
30/10:30pm 27.0 27.2 22.1 74 3.3 E 24 32 13 17 1013.4 - 0.0
30/10:00pm 26.8 27.3 22.0 75 3.2 E 22 26 12 14 1013.4 - 0.0
30/09:30pm 26.7 27.2 21.9 75 3.2 E 22 28 12 15 1013.2 - 0.0
30/09:00pm 26.9 26.7 22.1 75 3.2 E 26 30 14 16 1012.8 - 0.0
30/08:30pm 26.9 26.7 21.3 71 3.7 E 24 30 13 16 1012.5 - 0.0
30/08:00pm 26.9 26.3 22.0 74 3.3 ENE 28 32 15 17 1012.2 1012.2 0.0
30/07:30pm 26.9 26.2 21.8 73 3.4 E 28 32 15 17 1012.0 - 0.0
30/07:00pm 27.1 27.3 22.0 73 3.4 E 24 32 13 17 1011.7 - 0.0
30/06:30pm 27.2 26.9 21.8 72 3.6 ENE 26 32 14 17 1011.3 - 0.0
30/06:00pm 27.5 27.1 21.7 70 3.9 ENE 26 32 14 17 1011.2 - 0.0
30/05:30pm 27.4 26.8 22.0 72 3.6 E 28 37 15 20 1011.1 - 0.0
30/05:00pm 27.7 27.7 22.4 73 3.6 E 26 32 14 17 1011.1 1011.1 0.0
30/04:30pm 27.8 27.9 22.6 73 3.5 E 26 32 14 17 1011.1 - 0.0
30/04:00pm 28.0 28.0 21.6 68 4.3 E 24 30 13 16 1011.3 - 0.0
30/03:30pm 27.8 27.4 21.7 69 4.1 E 26 30 14 16 1011.5 - 0.0
30/03:00pm 28.0 27.0 21.9 69 4.1 ENE 30 35 16 19 1011.5 - 0.0
30/02:30pm 28.2 26.9 22.1 69 4.1 ENE 32 35 17 19 1011.7 - 0.0
30/02:00pm 27.4 27.4 22.4 74 3.4 ENE 26 32 14 17 1012.0 1012.0 0.0
30/01:30pm 27.1 26.1 21.9 73 3.5 ENE 30 39 16 21 1012.3 - 0.0
30/01:00pm 27.7 27.3 21.7 70 4.0 ENE 26 30 14 16 1012.6 - 0.0
30/12:30pm 27.6 27.0 21.9 71 3.8 ENE 28 35 15 19 1013.0 - 0.0
30/12:00pm 27.4 26.6 21.7 71 3.8 E 28 37 15 20 1013.4 - 0.0
30/11:30am 27.2 26.7 22.1 73 3.4 ENE 28 32 15 17 1013.7 - 0.0
30/11:00am 27.1 26.5 21.2 70 3.9 E 26 30 14 16 1013.8 1013.8 0.8
30/10:30am 26.6 26.8 22.0 76 3.1 ENE 24 30 13 16 1014.0 - 0.6
30/10:00am 25.6 27.1 22.0 80 2.4 E 17 24 9 13 1014.0 - 0.6
30/09:30am 26.4 27.2 21.8 76 3.1 E 20 26 11 14 1013.7 - 0.6
30/09:00am 26.0 26.0 21.0 74 3.3 E 22 26 12 14 1013.3 - 0.6
30/08:30am 26.1 25.5 20.6 71 3.6 E 24 28 13 15 1013.0 - 0.6
30/08:00am 25.8 25.2 20.4 72 3.5 E 24 32 13 17 1012.7 1012.7 0.6
30/07:30am 25.5 25.8 20.8 75 3.1 E 20 26 11 14 1012.3 - 0.6
30/07:00am 25.6 24.7 20.6 74 3.3 E 26 33 14 18 1012.0 - 0.6
30/06:30am 25.6 25.4 20.6 74 3.3 E 22 28 12 15 1011.8 - 0.6
30/06:00am 25.3 25.5 20.6 75 3.1 E 20 24 11 13 1011.6 - 0.6
30/05:30am 25.4 25.7 20.7 75 3.1 E 20 28 11 15 1011.6 - 0.6
30/05:00am 25.4 26.1 21.2 77 2.8 E 19 24 10 13 1011.6 1011.6 0.6
30/04:30am 25.7 25.7 21.6 78 2.7 E 24 28 13 15 1011.6 - 0.6
30/04:00am 25.6 25.5 21.5 78 2.7 E 24 28 13 15 1011.7 - 0.6
30/03:30am 25.8 25.8 21.6 77 2.8 E 24 30 13 16 1011.9 - 0.6
30/03:00am 25.8 25.7 21.4 76 2.9 E 24 30 13 16 1012.3 - 0.6
30/02:30am 25.9 25.4 22.2 80 2.5 E 28 33 15 18 1012.6 - 0.6
30/02:00am 25.9 25.0 21.4 76 3.0 E 28 32 15 17 1012.9 1012.9 0.6
30/01:30am 25.9 25.2 22.5 81 2.3 E 30 35 16 19 1013.2 - 0.6
30/01:00am 26.0 25.8 22.7 82 2.2 ENE 28 33 15 18 1013.6 - 0.6
30/12:30am 26.0 25.5 22.1 79 2.6 ENE 28 32 15 17 1013.7 - 0.6
30/12:00am 26.2 26.5 22.2 78 2.7 E 24 32 13 17 1013.8 - 0.6
 
Date/Time
WST
Temp
°C
App
Temp
°C
Dew
Point
Rel
Hum
%
Delta-T
°C
Wind Press
QNH
hPa
Press
MSL
hPa
Rain
since 9 am
mm
Dir
 
Spd
km/h
Gust
km/h
Spd
kts
Gust
kts
29/11:30pm 25.9 26.0 22.5 81 2.3 E 26 32 14 17 1014.1 - 0.6
29/11:00pm 26.3 26.1 22.7 80 2.4 E 28 33 15 18 1014.1 1014.1 0.6
29/10:30pm 26.2 26.7 22.6 80 2.4 E 24 32 13 17 1014.0 - 0.6
29/10:00pm 26.3 27.2 22.6 80 2.5 E 22 30 12 16 1013.8 - 0.4
29/09:30pm 26.2 25.6 21.9 77 2.9 E 28 33 15 18 1013.6 - 0.4
29/09:00pm 26.2 27.0 22.5 80 2.5 E 22 30 12 16 1013.5 - 0.4
29/08:30pm 26.2 26.2 21.7 76 3.0 E 24 32 13 17 1013.2 - 0.4
29/08:00pm 26.0 26.2 22.0 78 2.7 E 24 33 13 18 1013.0 1013.0 0.4
29/07:30pm 26.1 26.1 21.7 77 2.9 ESE 24 33 13 18 1012.6 - 0.4
29/07:00pm 25.8 25.4 22.4 81 2.3 ESE 28 33 15 18 1012.4 - 0.4
29/06:30pm 25.4 25.0 22.3 83 2.1 ESE 28 37 15 20 1012.1 - 0.4
29/06:00pm 27.2 28.0 21.8 72 3.6 E 20 28 11 15 1011.9 - 0.4
29/05:30pm 27.2 27.4 21.3 70 3.9 ESE 22 28 12 15 1011.8 - 0.4
29/05:00pm 26.9 26.5 20.2 66 4.4 ESE 22 30 12 16 1011.7 1011.7 0.4
29/04:30pm 26.1 26.3 21.4 75 3.1 E 22 32 12 17 1011.8 - 0.4
29/04:17pm 25.4 25.3 22.3 83 2.1 E 26 33 14 18 1011.9 - 0.4
29/04:00pm 25.0 24.1 21.5 81 2.3 ESE 28 37 15 20 1011.9 - 0.4
29/03:56pm 25.3 24.9 21.7 80 2.4 ESE 26 37 14 20 1011.9 - 0.2
29/03:30pm 25.3 26.0 21.5 79 2.5 SE 20 28 11 15 1012.0 - 0.2
29/03:00pm 25.3 24.2 21.7 80 2.4 E 30 37 16 20 1012.4 - 0.0
29/02:30pm 25.8 24.1 21.7 78 2.7 E 33 43 18 23 1012.4 - 0.0
29/02:00pm 27.2 26.7 20.7 67 4.3 ESE 24 35 13 19 1012.7 1012.7 0.0
29/01:30pm 25.4 24.1 21.3 78 2.7 ESE 30 43 16 23 1013.2 - 0.0
29/01:00pm 25.6 23.8 22.2 81 2.3 ENE 35 43 19 23 1013.5 - 0.0
29/12:30pm 25.3 24.2 22.5 84 1.9 ENE 32 37 17 20 1013.7 - 0.0
29/12:00pm 26.4 25.5 20.6 70 3.8 ESE 26 35 14 19 1014.0 - 0.0
29/11:40am 26.0 25.4 21.3 75 3.1 ESE 26 35 14 19 1014.1 - 0.0
29/11:30am 25.3 25.6 21.5 79 2.5 ESE 22 32 12 17 1014.1 - 0.0
29/11:00am 25.1 23.7 22.3 84 1.9 E 33 44 18 24 1014.3 1014.3 12.0
29/10:30am 26.3 25.1 20.8 71 3.6 ESE 28 39 15 21 1014.3 - 12.0
29/10:00am 26.2 25.3 20.7 71 3.6 ESE 26 35 14 19 1014.3 - 12.0

Other Formats:

Comma delimited format used in spreadsheet applications
http://www.bom.gov.au/fwo/IDW60801/IDW60801.96996.axf

JavaScript Object Notation format (JSON) in row-major order
http://www.bom.gov.au/fwo/IDW60801/IDW60801.96996.json